Historyczne dane pomiarowe

Dodano dane terminowe – wersja testowa.

Dane z okresu 1951-2019

Wersja bazy: 1.34 [2019-03-16, lista zmian], aktualizacja planowana na 2019-04-15

Dane meteo z obszaru Polski uzyskane na podstawie danych udostępnionych przez Instytut Meteorologii i Gospodarki Wodnej – Państwowy Instytut Badawczy.

 

Wybierz Datę:    

       

TemperaturaWilgotnośćWiatrCiśnienieOpadyŚniegCzas trwania zjawisk
 Stacja t tx tn tng RH VA  wxwx mslp ppp RRR   cm mm wxwxwxwxwxwxwx
1987-08-14 14.4 19.4 9.4 4.9 66.0- 4.0 2.3---- 0.0------------
1987-08-13 11.9 16.2 9.6 6.3 66.5- 5.3 2.0---- 0.0------------
1987-08-12 12.3 16.7 8.3 4.2 64.5- 3.7 3.3---- 0.0------------
1987-08-11 13.2 16.7 11.1 8.1 72.8- 4.0 2.7---- 0.0------------
1987-08-10 14.9 17.7 12.5 11.7 72.8- 5.3 2.3---- 8.5------------
1987-08-09 16.2 20.7 12.1 5.8 54.0- 2.0 3.0---- 0.0------------
1987-08-08 14.0 17.7 10.5 6.1 62.0- 4.0 1.3---- 0.0------------
1987-08-07 10.3 14.7 6.3 2.0 73.3- 4.3 3.3---- 0.0------------
1987-08-06 10.6 14.6 8.8 7.5 80.0- 5.3 2.3---- 2.4------------
1987-08-05 12.9 15.7 10.3 8.5 73.5- 6.0 0.7---- 0.0------------
1987-08-04 14.6 17.8 13.2 7.8 82.8- 5.3 1.7---- 5.6------------
1987-08-03 14.5 18.3 10.6 7.7 73.3- 4.7 1.3---- 0.0------------
1987-08-02 14.6 17.8 11.9 11.7 72.8- 5.0 2.0---- 3.0------------
1987-08-01 15.1 20.6 10.3 8.5 77.0- 3.3 1.0---- 0.7------------
1987-07-31 16.7 21.2 14.4 12.6 65.8- 5.3 2.0---- 12.4------------
1987-07-30 16.3 21.2 12.5 8.3 63.5- 3.7 3.0---- 0.0------------
1987-07-29 12.8 17.6 9.7 8.1 66.3- 3.7 0.3---- 0.0------------
1987-07-28 12.5 15.1 10.5 8.2 79.8- 6.0 2.0---- 5.7------------
1987-07-27 11.9 17.0 8.0 6.5 72.3- 5.0 2.0---- 0.0------------
1987-07-26 14.9 20.8 10.4 11.5 94.5- 6.0 1.0---- 17.5------------
1987-07-25 19.0 23.5 15.7 13.4 86.3- 4.7 1.3---- 11.4------------
1987-07-24 23.9 26.1 17.7 15.4 62.5- 4.7 1.7---- 16.1------------
1987-07-23 21.2 25.8 16.8 13.1 77.3- 3.0 1.0---- 0.0------------
1987-07-22 20.8 23.8 16.6 13.0 78.8- 4.3 1.0---- 0.0------------
1987-07-21 20.0 25.6 14.7 11.1 79.8- 3.0 1.7---- 0.0------------
1987-07-20 21.5 26.8 19.6 14.8 74.3- 3.7 2.3---- 1.2------------
1987-07-19 24.4 30.0 21.7 15.5 66.5- 2.7 2.3---- 0.0------------
1987-07-18 22.5 27.6 18.7 16.8 70.0- 2.7 2.0---- 0.0------------
1987-07-17 22.1 26.6 19.1 13.8 56.3- 5.3 3.0---- 0.0------------
1987-07-16 20.8 26.6 14.8 8.5 55.5- 4.3 0.3---- 0.0------------
1987-07-15 15.8 20.5 10.7 4.3 66.8- 1.7 1.3---- 0.0------------
1987-07-14 16.5 19.4 12.5 9.5 63.3- 2.0 1.7---- 0.0------------
1987-07-13 18.4 23.0 15.1 13.7 74.5- 4.0 1.0---- 0.0------------
1987-07-12 20.0 25.1 15.5 12.2 54.0- 3.7 5.0---- 6.7------------
1987-07-11 16.9 21.9 10.5 5.8 51.8- 3.0 1.0---- 0.0------------
1987-07-10 14.8 17.7 11.6 11.2 70.3- 3.3 1.7---- 0.0------------
1987-07-09 19.2 25.6 14.1 14.8 69.8- 3.7 1.7---- 21.0------------
1987-07-08 20.9 25.7 16.2 11.7 39.8- 0.7 3.7---- 0.0------------
1987-07-07 18.0 23.6 12.1 5.3 47.8- 0.0 1.0---- 0.0------------
1987-07-06 15.4 19.7 9.9 7.4 67.3- 0.7 1.7---- 0.0------------
1987-07-05 14.4 18.4 12.6 11.4 71.3- 6.0 2.0---- 0.6------------
1987-07-04 17.6 22.0 14.8 11.4 66.3- 4.0 0.7---- 0.0------------
1987-07-03 17.9 21.3 15.5 14.3 74.3- 5.7 1.3---- 0.0------------
1987-07-02 20.4 25.6 19.1 18.1 85.5- 6.0 1.7---- 0.0------------
1987-07-01 24.3 28.5 20.1 15.2 65.5- 0.7 1.3---- 0.0------------
1987-06-30 22.3 26.5 17.1 12.0 65.8- 0.3 0.7---- 0.0------------
1987-06-29 19.4 22.7 15.7 14.1 72.8- 3.7 0.7---- 0.0------------
1987-06-28 18.5 23.1 14.4 11.9 79.3- 4.7 0.3---- 0.0------------
1987-06-27 18.0 24.1 15.8 13.2 68.0- 5.0 1.7---- 6.8------------
1987-06-26 15.8 20.6 10.5 6.5 58.8- 2.0 3.3---- 0.0------------
1987-06-25 15.3 19.2 12.3 9.2 70.3- 4.3 2.3---- 0.0------------
1987-06-24 15.8 19.4 13.1 9.9 69.0- 3.7 1.3---- 0.3------------
1987-06-23 14.5 18.7 12.0 10.2 80.8- 5.0 1.7---- 2.8------------
1987-06-22 14.8 20.4 12.0 10.0 74.3- 6.0 1.3---- 31.6------------
1987-06-21 15.3 20.7 10.4 6.6 61.3- 4.7 1.0---- 1.0------------
1987-06-20 14.6 20.6 9.0 3.5 48.8- 3.0 2.0---- 0.0------------
1987-06-19 11.2 15.0 8.2 5.8 69.0- 3.7 0.7---- 7.1------------
1987-06-18 10.4 16.2 7.1 3.0 62.5- 6.0 2.0---- 14.6------------
1987-06-17 9.8 13.9 8.2 7.3 73.8- 5.7 1.0---- 2.7------------
1987-06-16 15.7 20.8 9.9 9.8 76.0- 4.3 2.7---- 15.3------------
1215.4 ms

 

Źródłem pochodzenia danych jest Instytut Meteorologii i Gospodarki Wodnej – Państwowy Instytut Badawczy. Dane Instytutu Meteorologii i Gospodarki Wodnej – Państwowego Instytutu Badawczego zostały przetworzone.

Dane źródłowe można odnaleźć na stronie https://dane.imgw.pl